sensor_id;sensor_type;location;lat;lon;timestamp;temperature;humidity
75451;DHT22;64029;48.244;9.188;2024-01-06T00:00:36;3.90;96.90
75451;DHT22;64029;48.244;9.188;2024-01-06T00:03:03;3.90;96.90
75451;DHT22;64029;48.244;9.188;2024-01-06T00:05:30;3.90;96.60
75451;DHT22;64029;48.244;9.188;2024-01-06T00:07:57;3.90;96.60
75451;DHT22;64029;48.244;9.188;2024-01-06T00:10:24;3.90;96.60
75451;DHT22;64029;48.244;9.188;2024-01-06T00:12:52;3.90;96.60
75451;DHT22;64029;48.244;9.188;2024-01-06T00:15:20;3.90;96.60
75451;DHT22;64029;48.244;9.188;2024-01-06T00:17:47;3.90;96.60
75451;DHT22;64029;48.244;9.188;2024-01-06T00:20:14;3.90;96.60
75451;DHT22;64029;48.244;9.188;2024-01-06T00:22:41;3.90;96.60
75451;DHT22;64029;48.244;9.188;2024-01-06T00:25:09;3.90;96.60
75451;DHT22;64029;48.244;9.188;2024-01-06T00:27:36;3.90;96.60
75451;DHT22;64029;48.244;9.188;2024-01-06T00:30:04;3.90;96.60
75451;DHT22;64029;48.244;9.188;2024-01-06T00:32:33;3.90;96.60
75451;DHT22;64029;48.244;9.188;2024-01-06T00:35:00;3.90;96.60
75451;DHT22;64029;48.244;9.188;2024-01-06T00:37:27;3.90;96.60
75451;DHT22;64029;48.244;9.188;2024-01-06T00:39:54;3.90;96.90
75451;DHT22;64029;48.244;9.188;2024-01-06T00:42:22;3.90;96.70
75451;DHT22;64029;48.244;9.188;2024-01-06T00:44:49;3.90;96.70
75451;DHT22;64029;48.244;9.188;2024-01-06T00:47:15;3.90;96.70
75451;DHT22;64029;48.244;9.188;2024-01-06T00:49:44;3.90;96.80
75451;DHT22;64029;48.244;9.188;2024-01-06T00:52:11;3.90;96.70
75451;DHT22;64029;48.244;9.188;2024-01-06T00:54:38;3.90;96.70
75451;DHT22;64029;48.244;9.188;2024-01-06T00:57:05;3.90;96.70
75451;DHT22;64029;48.244;9.188;2024-01-06T00:59:32;3.90;96.70
75451;DHT22;64029;48.244;9.188;2024-01-06T01:01:59;3.90;96.70
75451;DHT22;64029;48.244;9.188;2024-01-06T01:04:26;3.90;97.30
75451;DHT22;64029;48.244;9.188;2024-01-06T01:06:54;3.90;97.00
75451;DHT22;64029;48.244;9.188;2024-01-06T01:09:21;3.90;96.90
75451;DHT22;64029;48.244;9.188;2024-01-06T01:11:48;3.90;96.80
75451;DHT22;64029;48.244;9.188;2024-01-06T01:14:15;3.90;96.70
75451;DHT22;64029;48.244;9.188;2024-01-06T01:16:44;3.90;96.70
75451;DHT22;64029;48.244;9.188;2024-01-06T01:19:11;3.90;96.70
75451;DHT22;64029;48.244;9.188;2024-01-06T01:21:38;3.90;96.60
75451;DHT22;64029;48.244;9.188;2024-01-06T01:24:07;3.90;96.60
75451;DHT22;64029;48.244;9.188;2024-01-06T01:26:33;3.90;96.60
75451;DHT22;64029;48.244;9.188;2024-01-06T01:29:00;3.90;96.60
75451;DHT22;64029;48.244;9.188;2024-01-06T01:31:27;3.90;96.50
75451;DHT22;64029;48.244;9.188;2024-01-06T01:33:54;3.90;96.60
75451;DHT22;64029;48.244;9.188;2024-01-06T01:36:21;3.90;96.60
75451;DHT22;64029;48.244;9.188;2024-01-06T01:38:49;3.90;96.60
75451;DHT22;64029;48.244;9.188;2024-01-06T01:41:17;3.90;96.60
75451;DHT22;64029;48.244;9.188;2024-01-06T01:43:45;3.90;96.60
75451;DHT22;64029;48.244;9.188;2024-01-06T01:46:13;3.90;96.60
75451;DHT22;64029;48.244;9.188;2024-01-06T01:48:40;3.90;96.50
75451;DHT22;64029;48.244;9.188;2024-01-06T01:51:08;3.90;96.50
75451;DHT22;64029;48.244;9.188;2024-01-06T01:53:36;3.90;96.50
75451;DHT22;64029;48.244;9.188;2024-01-06T01:56:04;3.90;96.40
75451;DHT22;64029;48.244;9.188;2024-01-06T01:58:33;3.90;96.40
75451;DHT22;64029;48.244;9.188;2024-01-06T02:01:00;3.90;96.40
75451;DHT22;64029;48.244;9.188;2024-01-06T02:03:29;3.90;96.40
75451;DHT22;64029;48.244;9.188;2024-01-06T02:05:56;3.90;96.40
75451;DHT22;64029;48.244;9.188;2024-01-06T02:08:23;3.90;96.30
75451;DHT22;64029;48.244;9.188;2024-01-06T02:10:53;3.90;96.30
75451;DHT22;64029;48.244;9.188;2024-01-06T02:13:21;3.90;96.20
75451;DHT22;64029;48.244;9.188;2024-01-06T02:15:49;3.90;96.20
75451;DHT22;64029;48.244;9.188;2024-01-06T02:18:18;3.90;96.30
75451;DHT22;64029;48.244;9.188;2024-01-06T02:20:46;3.80;96.30
75451;DHT22;64029;48.244;9.188;2024-01-06T02:23:16;3.80;96.30
75451;DHT22;64029;48.244;9.188;2024-01-06T02:25:43;3.80;96.30
75451;DHT22;64029;48.244;9.188;2024-01-06T02:28:10;3.80;96.30
75451;DHT22;64029;48.244;9.188;2024-01-06T02:30:37;3.80;96.30
75451;DHT22;64029;48.244;9.188;2024-01-06T02:33:04;3.80;96.20
75451;DHT22;64029;48.244;9.188;2024-01-06T02:35:31;3.80;96.20
75451;DHT22;64029;48.244;9.188;2024-01-06T02:37:58;3.80;96.10
75451;DHT22;64029;48.244;9.188;2024-01-06T02:40:26;3.80;96.10
75451;DHT22;64029;48.244;9.188;2024-01-06T02:42:53;3.80;96.20
75451;DHT22;64029;48.244;9.188;2024-01-06T02:45:20;3.80;96.20
75451;DHT22;64029;48.244;9.188;2024-01-06T02:47:47;3.80;96.20
75451;DHT22;64029;48.244;9.188;2024-01-06T02:50:14;3.80;96.20
75451;DHT22;64029;48.244;9.188;2024-01-06T02:52:42;3.80;96.10
75451;DHT22;64029;48.244;9.188;2024-01-06T02:55:09;3.70;96.00
75451;DHT22;64029;48.244;9.188;2024-01-06T02:57:38;3.70;96.00
75451;DHT22;64029;48.244;9.188;2024-01-06T03:00:07;3.80;96.00
75451;DHT22;64029;48.244;9.188;2024-01-06T03:02:34;3.70;96.00
75451;DHT22;64029;48.244;9.188;2024-01-06T03:05:03;3.70;95.90
75451;DHT22;64029;48.244;9.188;2024-01-06T03:07:30;3.70;95.90
75451;DHT22;64029;48.244;9.188;2024-01-06T03:09:57;3.70;95.90
75451;DHT22;64029;48.244;9.188;2024-01-06T03:12:24;3.70;95.90
75451;DHT22;64029;48.244;9.188;2024-01-06T03:14:53;3.70;95.90
75451;DHT22;64029;48.244;9.188;2024-01-06T03:17:20;3.70;95.80
75451;DHT22;64029;48.244;9.188;2024-01-06T03:19:46;3.70;95.80
75451;DHT22;64029;48.244;9.188;2024-01-06T03:22:13;3.70;95.80
75451;DHT22;64029;48.244;9.188;2024-01-06T03:24:40;3.60;95.80
75451;DHT22;64029;48.244;9.188;2024-01-06T03:27:07;3.70;95.80
75451;DHT22;64029;48.244;9.188;2024-01-06T03:29:35;3.60;95.70
75451;DHT22;64029;48.244;9.188;2024-01-06T03:32:03;3.60;95.70
75451;DHT22;64029;48.244;9.188;2024-01-06T03:34:30;3.60;95.70
75451;DHT22;64029;48.244;9.188;2024-01-06T03:36:57;3.60;95.70
75451;DHT22;64029;48.244;9.188;2024-01-06T03:39:24;3.60;95.80
75451;DHT22;64029;48.244;9.188;2024-01-06T03:41:51;3.60;95.80
75451;DHT22;64029;48.244;9.188;2024-01-06T03:44:18;3.50;95.70
75451;DHT22;64029;48.244;9.188;2024-01-06T03:46:45;3.50;95.80
75451;DHT22;64029;48.244;9.188;2024-01-06T03:49:14;3.50;95.80
75451;DHT22;64029;48.244;9.188;2024-01-06T03:51:44;3.50;95.80
75451;DHT22;64029;48.244;9.188;2024-01-06T03:54:11;3.50;95.80
75451;DHT22;64029;48.244;9.188;2024-01-06T03:56:38;3.50;95.80
75451;DHT22;64029;48.244;9.188;2024-01-06T03:59:04;3.50;95.80
75451;DHT22;64029;48.244;9.188;2024-01-06T04:01:31;3.50;95.80
75451;DHT22;64029;48.244;9.188;2024-01-06T04:04:01;3.50;95.80
75451;DHT22;64029;48.244;9.188;2024-01-06T04:06:30;3.50;95.80
75451;DHT22;64029;48.244;9.188;2024-01-06T04:08:58;3.50;95.90
75451;DHT22;64029;48.244;9.188;2024-01-06T04:11:25;3.50;95.90
75451;DHT22;64029;48.244;9.188;2024-01-06T04:13:52;3.50;95.90
75451;DHT22;64029;48.244;9.188;2024-01-06T04:16:19;3.40;95.80
75451;DHT22;64029;48.244;9.188;2024-01-06T04:18:47;3.40;95.80
75451;DHT22;64029;48.244;9.188;2024-01-06T04:21:14;3.40;95.80
75451;DHT22;64029;48.244;9.188;2024-01-06T04:23:42;3.40;95.80
75451;DHT22;64029;48.244;9.188;2024-01-06T04:26:09;3.40;95.90
75451;DHT22;64029;48.244;9.188;2024-01-06T04:28:36;3.40;95.90
75451;DHT22;64029;48.244;9.188;2024-01-06T04:31:03;3.40;95.90
75451;DHT22;64029;48.244;9.188;2024-01-06T04:33:30;3.40;95.90
75451;DHT22;64029;48.244;9.188;2024-01-06T04:35:58;3.40;95.90
75451;DHT22;64029;48.244;9.188;2024-01-06T04:38:27;3.40;95.90
75451;DHT22;64029;48.244;9.188;2024-01-06T04:40:56;3.40;95.90
75451;DHT22;64029;48.244;9.188;2024-01-06T04:43:23;3.40;95.90
75451;DHT22;64029;48.244;9.188;2024-01-06T04:45:50;3.40;95.90
75451;DHT22;64029;48.244;9.188;2024-01-06T04:48:17;3.40;95.90
75451;DHT22;64029;48.244;9.188;2024-01-06T04:50:44;3.30;95.90
75451;DHT22;64029;48.244;9.188;2024-01-06T04:53:11;3.30;95.90
75451;DHT22;64029;48.244;9.188;2024-01-06T04:55:38;3.30;95.90
75451;DHT22;64029;48.244;9.188;2024-01-06T04:58:06;3.30;95.90
75451;DHT22;64029;48.244;9.188;2024-01-06T05:00:33;3.30;95.80
75451;DHT22;64029;48.244;9.188;2024-01-06T05:03:02;3.30;95.80
75451;DHT22;64029;48.244;9.188;2024-01-06T05:05:28;3.30;95.90
75451;DHT22;64029;48.244;9.188;2024-01-06T05:07:55;3.30;95.80
75451;DHT22;64029;48.244;9.188;2024-01-06T05:10:23;3.20;95.80
75451;DHT22;64029;48.244;9.188;2024-01-06T05:12:50;3.20;95.80
75451;DHT22;64029;48.244;9.188;2024-01-06T05:15:19;3.20;95.80
75451;DHT22;64029;48.244;9.188;2024-01-06T05:17:46;3.20;95.80
75451;DHT22;64029;48.244;9.188;2024-01-06T05:20:13;3.20;95.80
75451;DHT22;64029;48.244;9.188;2024-01-06T05:22:39;3.20;95.80
75451;DHT22;64029;48.244;9.188;2024-01-06T05:25:07;3.20;95.80
75451;DHT22;64029;48.244;9.188;2024-01-06T05:27:34;3.20;95.80
75451;DHT22;64029;48.244;9.188;2024-01-06T05:30:04;3.20;95.80
75451;DHT22;64029;48.244;9.188;2024-01-06T05:32:33;3.10;95.80
75451;DHT22;64029;48.244;9.188;2024-01-06T05:35:00;3.10;95.80
75451;DHT22;64029;48.244;9.188;2024-01-06T05:37:27;3.10;95.80
75451;DHT22;64029;48.244;9.188;2024-01-06T05:39:53;3.20;95.90
75451;DHT22;64029;48.244;9.188;2024-01-06T05:42:21;3.10;95.80
75451;DHT22;64029;48.244;9.188;2024-01-06T05:44:47;3.10;95.80
75451;DHT22;64029;48.244;9.188;2024-01-06T05:47:14;3.10;95.80
75451;DHT22;64029;48.244;9.188;2024-01-06T05:49:43;3.10;95.80
75451;DHT22;64029;48.244;9.188;2024-01-06T05:52:10;3.10;96.10
75451;DHT22;64029;48.244;9.188;2024-01-06T05:54:40;3.10;95.80
75451;DHT22;64029;48.244;9.188;2024-01-06T05:57:08;3.10;95.80
75451;DHT22;64029;48.244;9.188;2024-01-06T05:59:35;3.10;95.80
75451;DHT22;64029;48.244;9.188;2024-01-06T06:02:02;3.00;95.80
75451;DHT22;64029;48.244;9.188;2024-01-06T06:04:29;3.00;95.70
75451;DHT22;64029;48.244;9.188;2024-01-06T06:06:57;3.00;95.70
75451;DHT22;64029;48.244;9.188;2024-01-06T06:09:24;3.00;95.70
75451;DHT22;64029;48.244;9.188;2024-01-06T06:11:51;3.00;95.70
75451;DHT22;64029;48.244;9.188;2024-01-06T06:14:18;3.00;95.80
75451;DHT22;64029;48.244;9.188;2024-01-06T06:16:44;3.00;96.10
75451;DHT22;64029;48.244;9.188;2024-01-06T06:19:13;3.00;95.80
75451;DHT22;64029;48.244;9.188;2024-01-06T06:21:40;3.00;95.80
75451;DHT22;64029;48.244;9.188;2024-01-06T06:24:08;3.00;95.80
75451;DHT22;64029;48.244;9.188;2024-01-06T06:26:35;3.00;95.70
75451;DHT22;64029;48.244;9.188;2024-01-06T06:29:02;2.90;95.70
75451;DHT22;64029;48.244;9.188;2024-01-06T06:31:29;3.00;95.70
75451;DHT22;64029;48.244;9.188;2024-01-06T06:33:55;2.90;95.70
75451;DHT22;64029;48.244;9.188;2024-01-06T06:36:22;2.90;95.70
75451;DHT22;64029;48.244;9.188;2024-01-06T06:38:49;2.90;95.70
75451;DHT22;64029;48.244;9.188;2024-01-06T06:41:17;2.90;95.70
75451;DHT22;64029;48.244;9.188;2024-01-06T06:43:45;2.90;95.70
75451;DHT22;64029;48.244;9.188;2024-01-06T06:46:12;2.90;95.70
75451;DHT22;64029;48.244;9.188;2024-01-06T06:48:39;2.90;95.70
75451;DHT22;64029;48.244;9.188;2024-01-06T06:51:05;2.90;95.70
75451;DHT22;64029;48.244;9.188;2024-01-06T06:53:32;2.90;95.70
75451;DHT22;64029;48.244;9.188;2024-01-06T06:55:59;2.80;95.60
75451;DHT22;64029;48.244;9.188;2024-01-06T06:58:27;2.80;95.60
75451;DHT22;64029;48.244;9.188;2024-01-06T07:00:54;2.80;95.60
75451;DHT22;64029;48.244;9.188;2024-01-06T07:03:21;2.80;95.60
75451;DHT22;64029;48.244;9.188;2024-01-06T07:05:48;2.80;95.60
75451;DHT22;64029;48.244;9.188;2024-01-06T07:08:15;2.80;95.60
75451;DHT22;64029;48.244;9.188;2024-01-06T07:10:43;2.80;95.60
75451;DHT22;64029;48.244;9.188;2024-01-06T07:13:10;2.70;95.60
75451;DHT22;64029;48.244;9.188;2024-01-06T07:15:38;2.70;95.90
75451;DHT22;64029;48.244;9.188;2024-01-06T07:18:06;2.70;95.60
75451;DHT22;64029;48.244;9.188;2024-01-06T07:20:33;2.70;95.60
75451;DHT22;64029;48.244;9.188;2024-01-06T07:23:00;2.70;95.60
75451;DHT22;64029;48.244;9.188;2024-01-06T07:25:28;2.70;95.60
75451;DHT22;64029;48.244;9.188;2024-01-06T07:27:55;2.70;95.60
75451;DHT22;64029;48.244;9.188;2024-01-06T07:30:23;2.70;95.60
75451;DHT22;64029;48.244;9.188;2024-01-06T07:32:51;2.60;95.50
75451;DHT22;64029;48.244;9.188;2024-01-06T07:35:18;2.60;95.50
75451;DHT22;64029;48.244;9.188;2024-01-06T07:37:45;2.60;95.50
75451;DHT22;64029;48.244;9.188;2024-01-06T07:40:12;2.60;95.40
75451;DHT22;64029;48.244;9.188;2024-01-06T07:42:42;2.60;95.40
75451;DHT22;64029;48.244;9.188;2024-01-06T07:45:09;2.60;95.30
75451;DHT22;64029;48.244;9.188;2024-01-06T07:47:36;2.60;95.30
75451;DHT22;64029;48.244;9.188;2024-01-06T07:50:06;2.60;95.20
75451;DHT22;64029;48.244;9.188;2024-01-06T07:52:34;2.60;95.20
75451;DHT22;64029;48.244;9.188;2024-01-06T07:55:01;2.50;95.10
75451;DHT22;64029;48.244;9.188;2024-01-06T07:57:27;2.50;95.00
75451;DHT22;64029;48.244;9.188;2024-01-06T07:59:54;2.50;95.00
75451;DHT22;64029;48.244;9.188;2024-01-06T08:02:21;2.50;94.90
75451;DHT22;64029;48.244;9.188;2024-01-06T08:04:48;2.50;94.90
75451;DHT22;64029;48.244;9.188;2024-01-06T08:07:16;2.50;95.20
75451;DHT22;64029;48.244;9.188;2024-01-06T08:09:43;2.50;94.80
75451;DHT22;64029;48.244;9.188;2024-01-06T08:12:10;2.50;94.80
75451;DHT22;64029;48.244;9.188;2024-01-06T08:14:37;2.50;94.90
75451;DHT22;64029;48.244;9.188;2024-01-06T08:17:04;2.50;94.90
75451;DHT22;64029;48.244;9.188;2024-01-06T08:19:31;2.50;94.90
75451;DHT22;64029;48.244;9.188;2024-01-06T08:21:59;2.50;95.00
75451;DHT22;64029;48.244;9.188;2024-01-06T08:24:27;2.50;95.00
75451;DHT22;64029;48.244;9.188;2024-01-06T08:26:55;2.50;95.10
75451;DHT22;64029;48.244;9.188;2024-01-06T08:29:21;2.50;95.10
75451;DHT22;64029;48.244;9.188;2024-01-06T08:31:48;2.50;95.10
75451;DHT22;64029;48.244;9.188;2024-01-06T08:34:17;2.50;95.10
75451;DHT22;64029;48.244;9.188;2024-01-06T08:36:44;2.50;95.10
75451;DHT22;64029;48.244;9.188;2024-01-06T08:39:12;2.50;95.10
75451;DHT22;64029;48.244;9.188;2024-01-06T08:41:40;2.50;95.20
75451;DHT22;64029;48.244;9.188;2024-01-06T08:44:07;2.50;95.20
75451;DHT22;64029;48.244;9.188;2024-01-06T08:46:34;2.50;95.10
75451;DHT22;64029;48.244;9.188;2024-01-06T08:49:01;2.50;95.20
75451;DHT22;64029;48.244;9.188;2024-01-06T08:51:28;2.50;95.20
75451;DHT22;64029;48.244;9.188;2024-01-06T08:53:56;2.50;95.10
75451;DHT22;64029;48.244;9.188;2024-01-06T08:56:23;2.60;95.10
75451;DHT22;64029;48.244;9.188;2024-01-06T08:58:51;2.60;95.20
75451;DHT22;64029;48.244;9.188;2024-01-06T09:01:18;2.60;95.10
75451;DHT22;64029;48.244;9.188;2024-01-06T09:03:46;2.60;95.10
75451;DHT22;64029;48.244;9.188;2024-01-06T09:06:13;2.60;95.40
75451;DHT22;64029;48.244;9.188;2024-01-06T09:08:40;2.60;95.10
75451;DHT22;64029;48.244;9.188;2024-01-06T09:11:07;2.60;95.10
75451;DHT22;64029;48.244;9.188;2024-01-06T09:13:34;2.60;95.10
75451;DHT22;64029;48.244;9.188;2024-01-06T09:16:02;2.60;95.10
75451;DHT22;64029;48.244;9.188;2024-01-06T09:18:29;2.70;95.10
75451;DHT22;64029;48.244;9.188;2024-01-06T09:20:57;2.70;95.10
75451;DHT22;64029;48.244;9.188;2024-01-06T09:23:24;2.70;95.10
75451;DHT22;64029;48.244;9.188;2024-01-06T09:25:51;2.70;95.10
75451;DHT22;64029;48.244;9.188;2024-01-06T09:28:18;2.70;95.00
75451;DHT22;64029;48.244;9.188;2024-01-06T09:30:46;2.80;95.10
75451;DHT22;64029;48.244;9.188;2024-01-06T09:33:14;2.70;95.00
75451;DHT22;64029;48.244;9.188;2024-01-06T09:35:43;2.80;95.00
75451;DHT22;64029;48.244;9.188;2024-01-06T09:38:10;2.80;95.00
75451;DHT22;64029;48.244;9.188;2024-01-06T09:40:42;2.80;95.00
75451;DHT22;64029;48.244;9.188;2024-01-06T09:43:09;2.80;94.90
75451;DHT22;64029;48.244;9.188;2024-01-06T09:45:36;2.80;94.90
75451;DHT22;64029;48.244;9.188;2024-01-06T09:48:09;2.90;94.80
75451;DHT22;64029;48.244;9.188;2024-01-06T09:50:39;2.90;94.80
75451;DHT22;64029;48.244;9.188;2024-01-06T09:53:08;2.90;94.70
75451;DHT22;64029;48.244;9.188;2024-01-06T09:55:37;2.90;94.80
75451;DHT22;64029;48.244;9.188;2024-01-06T09:58:04;3.00;94.80
75451;DHT22;64029;48.244;9.188;2024-01-06T10:00:31;3.00;94.80
75451;DHT22;64029;48.244;9.188;2024-01-06T10:02:59;3.00;94.60
75451;DHT22;64029;48.244;9.188;2024-01-06T10:05:25;3.00;94.40
75451;DHT22;64029;48.244;9.188;2024-01-06T10:07:54;3.00;94.40
75451;DHT22;64029;48.244;9.188;2024-01-06T10:10:22;3.10;94.30
75451;DHT22;64029;48.244;9.188;2024-01-06T10:12:53;3.10;94.30
75451;DHT22;64029;48.244;9.188;2024-01-06T10:15:21;3.10;94.30
75451;DHT22;64029;48.244;9.188;2024-01-06T10:17:48;3.20;94.20
75451;DHT22;64029;48.244;9.188;2024-01-06T10:20:15;3.20;94.20
75451;DHT22;64029;48.244;9.188;2024-01-06T10:22:43;3.20;94.40
75451;DHT22;64029;48.244;9.188;2024-01-06T10:25:12;3.20;94.20
75451;DHT22;64029;48.244;9.188;2024-01-06T10:27:39;3.20;94.00
75451;DHT22;64029;48.244;9.188;2024-01-06T10:30:09;3.20;94.20
75451;DHT22;64029;48.244;9.188;2024-01-06T10:32:36;3.30;94.20
75451;DHT22;64029;48.244;9.188;2024-01-06T10:35:04;3.30;94.00
75451;DHT22;64029;48.244;9.188;2024-01-06T10:37:32;3.30;94.10
75451;DHT22;64029;48.244;9.188;2024-01-06T10:40:07;3.30;93.80
75451;DHT22;64029;48.244;9.188;2024-01-06T10:42:37;3.40;94.00
75451;DHT22;64029;48.244;9.188;2024-01-06T10:45:07;3.40;94.10
75451;DHT22;64029;48.244;9.188;2024-01-06T10:47:34;3.40;93.80
75451;DHT22;64029;48.244;9.188;2024-01-06T10:50:06;3.40;94.00
75451;DHT22;64029;48.244;9.188;2024-01-06T10:52:34;3.40;93.60
75451;DHT22;64029;48.244;9.188;2024-01-06T10:55:01;3.50;93.90
75451;DHT22;64029;48.244;9.188;2024-01-06T10:57:29;3.50;93.70
75451;DHT22;64029;48.244;9.188;2024-01-06T10:59:59;3.50;93.20
75451;DHT22;64029;48.244;9.188;2024-01-06T11:02:27;3.50;93.10
75451;DHT22;64029;48.244;9.188;2024-01-06T11:04:54;3.50;93.70
75451;DHT22;64029;48.244;9.188;2024-01-06T11:07:22;3.60;93.10
75451;DHT22;64029;48.244;9.188;2024-01-06T11:09:52;3.60;93.00
75451;DHT22;64029;48.244;9.188;2024-01-06T11:12:21;3.60;93.20
75451;DHT22;64029;48.244;9.188;2024-01-06T11:14:48;3.60;93.00
75451;DHT22;64029;48.244;9.188;2024-01-06T11:17:50;3.60;92.30
75451;DHT22;64029;48.244;9.188;2024-01-06T11:20:19;3.70;92.70
75451;DHT22;64029;48.244;9.188;2024-01-06T11:22:47;3.70;92.70
75451;DHT22;64029;48.244;9.188;2024-01-06T11:25:15;3.70;92.50
75451;DHT22;64029;48.244;9.188;2024-01-06T11:27:43;3.70;93.00
75451;DHT22;64029;48.244;9.188;2024-01-06T11:30:19;3.70;93.10
75451;DHT22;64029;48.244;9.188;2024-01-06T11:32:49;3.80;93.40
75451;DHT22;64029;48.244;9.188;2024-01-06T11:35:18;3.80;92.40
75451;DHT22;64029;48.244;9.188;2024-01-06T11:37:54;3.70;92.70
75451;DHT22;64029;48.244;9.188;2024-01-06T11:40:31;3.80;92.70
75451;DHT22;64029;48.244;9.188;2024-01-06T11:43:01;3.80;92.50
75451;DHT22;64029;48.244;9.188;2024-01-06T11:45:29;3.80;93.00
75451;DHT22;64029;48.244;9.188;2024-01-06T11:47:59;3.80;92.30
75451;DHT22;64029;48.244;9.188;2024-01-06T11:50:28;3.80;92.80
75451;DHT22;64029;48.244;9.188;2024-01-06T11:52:55;3.80;92.40
75451;DHT22;64029;48.244;9.188;2024-01-06T11:55:22;3.80;92.80
75451;DHT22;64029;48.244;9.188;2024-01-06T11:57:49;3.80;92.70
75451;DHT22;64029;48.244;9.188;2024-01-06T12:00:17;3.80;92.50
75451;DHT22;64029;48.244;9.188;2024-01-06T12:02:44;3.80;92.50
75451;DHT22;64029;48.244;9.188;2024-01-06T12:05:16;3.80;92.30
75451;DHT22;64029;48.244;9.188;2024-01-06T12:07:53;3.80;92.70
75451;DHT22;64029;48.244;9.188;2024-01-06T12:10:20;3.90;92.90
75451;DHT22;64029;48.244;9.188;2024-01-06T12:12:55;3.80;92.50
75451;DHT22;64029;48.244;9.188;2024-01-06T12:15:24;3.90;92.60
75451;DHT22;64029;48.244;9.188;2024-01-06T12:17:51;3.90;92.70
75451;DHT22;64029;48.244;9.188;2024-01-06T12:20:19;3.90;92.80
75451;DHT22;64029;48.244;9.188;2024-01-06T12:22:46;3.90;92.60
75451;DHT22;64029;48.244;9.188;2024-01-06T12:25:14;3.90;92.90
75451;DHT22;64029;48.244;9.188;2024-01-06T12:27:42;3.90;92.40
75451;DHT22;64029;48.244;9.188;2024-01-06T12:30:13;3.90;92.60
75451;DHT22;64029;48.244;9.188;2024-01-06T12:32:42;3.90;92.80
75451;DHT22;64029;48.244;9.188;2024-01-06T12:35:09;3.90;92.60
75451;DHT22;64029;48.244;9.188;2024-01-06T12:37:39;3.90;92.30
75451;DHT22;64029;48.244;9.188;2024-01-06T12:40:09;3.90;92.50
75451;DHT22;64029;48.244;9.188;2024-01-06T12:42:36;3.90;92.20
75451;DHT22;64029;48.244;9.188;2024-01-06T12:45:04;3.90;92.60
75451;DHT22;64029;48.244;9.188;2024-01-06T12:47:31;3.90;92.50
75451;DHT22;64029;48.244;9.188;2024-01-06T12:49:58;3.90;92.40
75451;DHT22;64029;48.244;9.188;2024-01-06T12:52:25;4.00;92.50
75451;DHT22;64029;48.244;9.188;2024-01-06T12:54:53;3.90;92.90
75451;DHT22;64029;48.244;9.188;2024-01-06T12:57:20;3.90;92.30
75451;DHT22;64029;48.244;9.188;2024-01-06T12:59:47;3.90;92.40
75451;DHT22;64029;48.244;9.188;2024-01-06T13:02:15;3.90;92.40
75451;DHT22;64029;48.244;9.188;2024-01-06T13:04:41;3.90;92.30
75451;DHT22;64029;48.244;9.188;2024-01-06T13:07:08;3.90;92.00
75451;DHT22;64029;48.244;9.188;2024-01-06T13:09:35;3.90;92.00
75451;DHT22;64029;48.244;9.188;2024-01-06T13:12:05;3.90;92.00
75451;DHT22;64029;48.244;9.188;2024-01-06T13:14:32;3.90;92.10
75451;DHT22;64029;48.244;9.188;2024-01-06T13:16:59;3.90;92.30
75451;DHT22;64029;48.244;9.188;2024-01-06T13:19:26;3.90;92.40
75451;DHT22;64029;48.244;9.188;2024-01-06T13:21:53;3.90;92.20
75451;DHT22;64029;48.244;9.188;2024-01-06T13:24:20;3.90;91.50
75451;DHT22;64029;48.244;9.188;2024-01-06T13:26:46;3.90;92.10
75451;DHT22;64029;48.244;9.188;2024-01-06T13:29:15;3.90;92.40
75451;DHT22;64029;48.244;9.188;2024-01-06T13:31:43;3.90;92.20
75451;DHT22;64029;48.244;9.188;2024-01-06T13:34:10;3.90;91.70
75451;DHT22;64029;48.244;9.188;2024-01-06T13:36:37;3.90;92.30
75451;DHT22;64029;48.244;9.188;2024-01-06T13:39:04;3.90;92.40
75451;DHT22;64029;48.244;9.188;2024-01-06T13:41:32;3.90;92.30
75451;DHT22;64029;48.244;9.188;2024-01-06T13:43:59;3.90;92.30
75451;DHT22;64029;48.244;9.188;2024-01-06T13:46:27;3.90;92.40
75451;DHT22;64029;48.244;9.188;2024-01-06T13:48:54;3.90;92.50
75451;DHT22;64029;48.244;9.188;2024-01-06T13:51:21;3.90;92.40
75451;DHT22;64029;48.244;9.188;2024-01-06T13:53:48;3.90;92.40
75451;DHT22;64029;48.244;9.188;2024-01-06T13:56:15;3.90;92.20
75451;DHT22;64029;48.244;9.188;2024-01-06T13:58:43;3.90;92.70
75451;DHT22;64029;48.244;9.188;2024-01-06T14:01:10;3.90;92.40
75451;DHT22;64029;48.244;9.188;2024-01-06T14:03:39;3.90;92.40
75451;DHT22;64029;48.244;9.188;2024-01-06T14:06:06;3.90;92.30
75451;DHT22;64029;48.244;9.188;2024-01-06T14:08:33;3.90;92.60
75451;DHT22;64029;48.244;9.188;2024-01-06T14:11:00;3.90;92.40
75451;DHT22;64029;48.244;9.188;2024-01-06T14:13:27;3.90;92.40
75451;DHT22;64029;48.244;9.188;2024-01-06T14:15:53;3.90;92.30
75451;DHT22;64029;48.244;9.188;2024-01-06T14:18:22;3.90;92.40
75451;DHT22;64029;48.244;9.188;2024-01-06T14:20:50;3.90;92.40
75451;DHT22;64029;48.244;9.188;2024-01-06T14:23:17;3.90;92.40
75451;DHT22;64029;48.244;9.188;2024-01-06T14:25:45;3.90;92.40
75451;DHT22;64029;48.244;9.188;2024-01-06T14:28:12;3.90;92.40
75451;DHT22;64029;48.244;9.188;2024-01-06T14:30:39;3.90;92.40
75451;DHT22;64029;48.244;9.188;2024-01-06T14:33:06;3.90;92.40
75451;DHT22;64029;48.244;9.188;2024-01-06T14:35:33;3.90;92.40
75451;DHT22;64029;48.244;9.188;2024-01-06T14:38:01;3.90;92.40
75451;DHT22;64029;48.244;9.188;2024-01-06T14:40:28;3.90;92.40
75451;DHT22;64029;48.244;9.188;2024-01-06T14:42:56;3.90;92.40
75451;DHT22;64029;48.244;9.188;2024-01-06T14:45:24;3.90;92.40
75451;DHT22;64029;48.244;9.188;2024-01-06T14:47:50;3.80;92.40
75451;DHT22;64029;48.244;9.188;2024-01-06T14:50:17;3.80;92.40
75451;DHT22;64029;48.244;9.188;2024-01-06T14:52:45;3.90;92.50
75451;DHT22;64029;48.244;9.188;2024-01-06T14:55:13;3.80;92.50
75451;DHT22;64029;48.244;9.188;2024-01-06T14:57:41;3.80;92.50
75451;DHT22;64029;48.244;9.188;2024-01-06T15:00:10;3.90;92.50
75451;DHT22;64029;48.244;9.188;2024-01-06T15:02:37;3.80;92.50
75451;DHT22;64029;48.244;9.188;2024-01-06T15:05:06;3.80;92.50
75451;DHT22;64029;48.244;9.188;2024-01-06T15:07:33;3.80;92.50
75451;DHT22;64029;48.244;9.188;2024-01-06T15:10:00;3.80;92.50
75451;DHT22;64029;48.244;9.188;2024-01-06T15:12:28;3.80;92.60
75451;DHT22;64029;48.244;9.188;2024-01-06T15:14:55;3.80;92.60
75451;DHT22;64029;48.244;9.188;2024-01-06T15:17:23;3.80;92.60
75451;DHT22;64029;48.244;9.188;2024-01-06T15:19:51;3.80;92.60
75451;DHT22;64029;48.244;9.188;2024-01-06T15:22:18;3.80;92.60
75451;DHT22;64029;48.244;9.188;2024-01-06T15:24:45;3.80;92.60
75451;DHT22;64029;48.244;9.188;2024-01-06T15:27:12;3.80;92.70
75451;DHT22;64029;48.244;9.188;2024-01-06T15:29:41;3.80;92.60
75451;DHT22;64029;48.244;9.188;2024-01-06T15:32:07;3.80;92.70
75451;DHT22;64029;48.244;9.188;2024-01-06T15:34:34;3.80;92.70
75451;DHT22;64029;48.244;9.188;2024-01-06T15:37:01;3.80;92.70
75451;DHT22;64029;48.244;9.188;2024-01-06T15:39:28;3.70;92.60
75451;DHT22;64029;48.244;9.188;2024-01-06T15:41:55;3.80;92.70
75451;DHT22;64029;48.244;9.188;2024-01-06T15:44:22;3.70;92.70
75451;DHT22;64029;48.244;9.188;2024-01-06T15:46:51;3.70;92.80